createdAt,value
2018-06-17T00:01:27.072Z,7.87
2018-06-17T00:03:54.971Z,7.83
2018-06-17T00:06:22.789Z,8.10
2018-06-17T00:08:50.437Z,9.17
2018-06-17T00:11:18.085Z,8.90
2018-06-17T00:13:45.781Z,8.47
2018-06-17T00:16:14.077Z,7.83
2018-06-17T00:18:42.069Z,7.97
2018-06-17T00:21:09.786Z,8.10
2018-06-17T00:23:37.422Z,8.70
2018-06-17T00:26:05.614Z,8.90
2018-06-17T00:28:33.310Z,9.23
2018-06-17T00:31:01.031Z,9.37
2018-06-17T00:33:28.828Z,8.93
2018-06-17T00:35:56.691Z,8.53
2018-06-17T00:38:24.691Z,8.70
2018-06-17T00:40:52.498Z,9.10
2018-06-17T00:43:20.501Z,9.20
2018-06-17T00:45:48.219Z,8.67
2018-06-17T00:48:15.947Z,8.10
2018-06-17T00:50:43.916Z,9.40
2018-06-17T00:53:11.761Z,8.83
2018-06-17T00:55:39.593Z,8.30
2018-06-17T00:58:07.346Z,8.23
2018-06-17T01:00:35.428Z,8.30
2018-06-17T01:03:03.444Z,8.63
2018-06-17T01:05:31.238Z,8.80
2018-06-17T01:07:59.026Z,8.40
2018-06-17T01:10:27.132Z,8.70
2018-06-17T01:12:54.905Z,8.60
2018-06-17T01:15:22.666Z,8.47
2018-06-17T01:17:50.541Z,8.80
2018-06-17T01:20:18.365Z,9.40
2018-06-17T01:22:46.075Z,9.27
2018-06-17T01:25:13.980Z,8.80
2018-06-17T01:27:41.701Z,8.17
2018-06-17T01:30:09.470Z,7.97
2018-06-17T01:32:37.606Z,8.37
2018-06-17T01:35:05.642Z,9.40
2018-06-17T01:37:33.699Z,8.27
2018-06-17T01:40:01.612Z,8.60
2018-06-17T01:42:29.596Z,8.90
2018-06-17T01:44:57.272Z,8.00
2018-06-17T01:47:25.058Z,7.97
2018-06-17T01:49:52.695Z,8.57
2018-06-17T01:52:20.518Z,9.23
2018-06-17T01:54:48.250Z,8.70
2018-06-17T01:57:16.115Z,9.40
2018-06-17T01:59:44.060Z,8.77
2018-06-17T02:02:12.196Z,9.77
2018-06-17T02:04:45.575Z,8.70
2018-06-17T02:07:19.031Z,8.77
2018-06-17T02:09:52.377Z,9.07
2018-06-17T02:12:20.704Z,7.87
2018-06-17T02:14:58.620Z,8.60
2018-06-17T02:17:27.161Z,7.90
2018-06-17T02:19:55.412Z,8.67
2018-06-17T02:22:23.456Z,8.70
2018-06-17T02:24:51.162Z,9.77
2018-06-17T02:27:19.402Z,8.77
2018-06-17T02:29:47.456Z,8.50
2018-06-17T02:32:15.491Z,8.37
2018-06-17T02:34:43.246Z,9.03
2018-06-17T02:37:11.192Z,9.03
2018-06-17T02:39:39.345Z,9.60
2018-06-17T02:42:08.189Z,9.50
2018-06-17T02:44:36.109Z,9.13
2018-06-17T02:47:09.485Z,9.10
2018-06-17T02:49:39.331Z,8.50
2018-06-17T02:52:13.507Z,9.03
2018-06-17T02:54:44.187Z,8.90
2018-06-17T02:57:13.375Z,9.07
2018-06-17T02:59:42.000Z,8.67
2018-06-17T03:02:10.242Z,8.77
2018-06-17T03:04:37.868Z,9.00
2018-06-17T03:07:05.687Z,8.80
2018-06-17T03:09:33.563Z,9.10
2018-06-17T03:12:01.237Z,8.50
2018-06-17T03:14:29.623Z,9.27
2018-06-17T03:16:57.341Z,8.60
2018-06-17T03:19:25.108Z,9.23
2018-06-17T03:21:53.082Z,9.23
2018-06-17T03:24:26.453Z,9.20
2018-06-17T03:26:59.758Z,8.93
2018-06-17T03:29:33.459Z,9.50
2018-06-17T03:32:06.716Z,9.70
2018-06-17T03:34:34.667Z,9.90
2018-06-17T03:37:02.559Z,10.30
2018-06-17T03:39:30.380Z,9.27
2018-06-17T03:41:58.086Z,9.90
2018-06-17T03:44:25.680Z,10.00
2018-06-17T03:46:53.374Z,9.53
2018-06-17T03:49:21.036Z,10.37
2018-06-17T03:51:48.731Z,9.93
2018-06-17T03:54:16.416Z,10.23
2018-06-17T03:56:44.222Z,9.90
2018-06-17T03:59:11.971Z,9.53
2018-06-17T04:01:39.540Z,9.93
2018-06-17T04:04:07.288Z,9.87
2018-06-17T04:06:36.179Z,9.40
2018-06-17T04:09:06.027Z,9.27
2018-06-17T04:11:34.514Z,10.17
2018-06-17T04:14:02.314Z,9.20
2018-06-17T04:16:30.066Z,9.60
2018-06-17T04:18:57.803Z,9.90
2018-06-17T04:21:25.516Z,9.80
2018-06-17T04:23:53.393Z,10.80
2018-06-17T04:26:20.994Z,10.30
2018-06-17T04:28:49.412Z,10.83
2018-06-17T04:31:17.620Z,10.53
2018-06-17T04:33:45.376Z,10.23
2018-06-17T04:36:13.065Z,10.77
2018-06-17T04:38:40.820Z,9.73
2018-06-17T04:41:08.649Z,10.57
2018-06-17T04:43:36.324Z,9.87
2018-06-17T04:46:04.180Z,10.10
2018-06-17T04:48:32.099Z,9.30
2018-06-17T04:50:59.800Z,9.10
2018-06-17T04:53:27.440Z,9.10
2018-06-17T04:55:55.168Z,10.00
2018-06-17T04:58:23.139Z,8.63
2018-06-17T05:00:50.812Z,9.60
2018-06-17T05:03:19.070Z,9.40
2018-06-17T05:05:47.036Z,9.10
2018-06-17T05:08:14.893Z,10.07
2018-06-17T05:10:42.830Z,9.30
2018-06-17T05:13:10.512Z,9.83
2018-06-17T05:15:38.739Z,8.67
2018-06-17T05:18:07.276Z,9.50
2018-06-17T05:20:35.457Z,9.43
2018-06-17T05:23:03.214Z,9.83
2018-06-17T05:25:31.025Z,9.20
2018-06-17T05:27:59.122Z,10.03
2018-06-17T05:30:27.006Z,9.50
2018-06-17T05:32:55.033Z,8.70
2018-06-17T05:35:22.944Z,9.37
2018-06-17T05:37:50.633Z,8.50
2018-06-17T05:40:18.468Z,9.10
2018-06-17T05:42:46.700Z,8.80
2018-06-17T05:45:14.280Z,10.50
2018-06-17T05:47:42.230Z,9.90
2018-06-17T05:50:10.321Z,9.40
2018-06-17T05:52:38.000Z,8.60
2018-06-17T05:55:05.761Z,8.47
2018-06-17T05:57:33.415Z,8.37
2018-06-17T06:00:01.465Z,8.47
2018-06-17T06:02:29.252Z,8.73
2018-06-17T06:04:57.034Z,8.67
2018-06-17T06:07:25.079Z,8.40
2018-06-17T06:09:53.245Z,8.83
2018-06-17T06:12:21.197Z,7.77
2018-06-17T06:14:49.100Z,9.20
2018-06-17T06:17:16.675Z,8.13
2018-06-17T06:19:44.532Z,7.73
2018-06-17T06:22:12.236Z,7.37
2018-06-17T06:24:40.122Z,6.97
2018-06-17T06:27:07.882Z,7.10
2018-06-17T06:29:35.688Z,5.93
2018-06-17T06:32:03.650Z,6.07
2018-06-17T06:34:31.410Z,6.80
2018-06-17T06:36:59.413Z,6.80
2018-06-17T06:39:27.664Z,7.40
2018-06-17T06:41:55.525Z,6.87
2018-06-17T06:44:23.490Z,6.20
2018-06-17T06:46:51.124Z,6.40
2018-06-17T06:49:19.195Z,6.70
2018-06-17T06:51:47.237Z,7.30
2018-06-17T06:54:15.006Z,7.10
2018-06-17T06:56:42.934Z,6.80
2018-06-17T06:59:11.369Z,7.00
2018-06-17T07:01:50.317Z,7.50
2018-06-17T07:04:23.574Z,7.13
2018-06-17T07:07:02.815Z,8.20
2018-06-17T07:09:41.826Z,7.97
2018-06-17T07:12:09.754Z,8.33
2018-06-17T07:14:37.777Z,8.97
2018-06-17T07:17:17.003Z,8.77
2018-06-17T07:19:44.749Z,8.87
2018-06-17T07:22:12.389Z,8.50
2018-06-17T07:24:40.368Z,8.13
2018-06-17T07:27:19.605Z,8.27
2018-06-17T07:29:47.778Z,7.30
2018-06-17T07:32:15.531Z,8.30
2018-06-17T07:34:43.226Z,9.20
2018-06-17T07:37:11.193Z,7.73
2018-06-17T07:40:18.707Z,9.13
2018-06-17T07:42:48.120Z,9.13
2018-06-17T07:45:15.792Z,8.53
2018-06-17T07:47:43.458Z,8.40
2018-06-17T07:50:22.572Z,8.00
2018-06-17T07:52:56.004Z,6.83
2018-06-17T07:55:24.056Z,7.63
2018-06-17T07:57:52.125Z,7.63
2018-06-17T08:00:20.056Z,6.80
2018-06-17T08:02:48.016Z,6.67
2018-06-17T08:05:15.907Z,6.57
2018-06-17T08:07:43.675Z,6.07
2018-06-17T08:10:11.422Z,5.80
2018-06-17T08:12:39.268Z,6.30
2018-06-17T08:15:06.993Z,6.80
2018-06-17T08:17:34.903Z,7.17
2018-06-17T08:20:02.878Z,7.40
2018-06-17T08:22:30.855Z,8.33
2018-06-17T08:24:58.705Z,7.03
2018-06-17T08:27:27.135Z,6.90
2018-06-17T08:29:55.260Z,8.80
2018-06-17T08:32:23.266Z,8.20
2018-06-17T08:34:51.146Z,9.00
2018-06-17T08:37:19.264Z,9.90
2018-06-17T08:39:47.160Z,9.60
2018-06-17T08:42:14.995Z,9.67
2018-06-17T08:44:42.657Z,9.50
2018-06-17T08:47:10.381Z,9.80
2018-06-17T08:49:38.354Z,10.30
2018-06-17T08:52:06.242Z,9.90
2018-06-17T08:54:34.046Z,9.80
2018-06-17T08:57:01.995Z,9.03
2018-06-17T08:59:29.690Z,9.20
2018-06-17T09:01:57.340Z,9.07
2018-06-17T09:04:24.962Z,9.40
2018-06-17T09:06:52.814Z,8.47
2018-06-17T09:09:20.584Z,8.40
2018-06-17T09:11:49.204Z,8.40
2018-06-17T09:14:16.825Z,7.23
2018-06-17T09:16:44.490Z,6.10
2018-06-17T09:19:12.143Z,6.80
2018-06-17T09:21:39.953Z,7.10
2018-06-17T09:24:07.608Z,7.53
2018-06-17T09:26:35.948Z,6.60
2018-06-17T09:29:04.064Z,6.57
2018-06-17T09:31:32.110Z,6.00
2018-06-17T09:34:00.161Z,5.67
2018-06-17T09:36:29.262Z,6.07
2018-06-17T09:38:57.034Z,5.70
2018-06-17T09:41:24.903Z,3.93
2018-06-17T09:43:54.428Z,5.07
2018-06-17T09:46:22.589Z,3.73
2018-06-17T09:48:50.863Z,4.30
2018-06-17T09:51:19.153Z,3.77
2018-06-17T09:53:47.880Z,4.13
2018-06-17T09:56:15.919Z,3.23
2018-06-17T09:58:43.752Z,3.40
2018-06-17T10:01:12.078Z,3.57
2018-06-17T10:03:39.790Z,3.77
2018-06-17T10:06:07.754Z,4.03
2018-06-17T10:08:35.566Z,4.03
2018-06-17T10:11:04.171Z,3.73
2018-06-17T10:13:33.197Z,4.03
2018-06-17T10:16:01.257Z,4.20
2018-06-17T10:18:30.550Z,3.40
2018-06-17T10:20:58.336Z,4.10
2018-06-17T10:23:26.292Z,3.80
2018-06-17T10:25:54.052Z,4.07
2018-06-17T10:28:23.843Z,4.20
2018-06-17T10:30:52.565Z,3.47
2018-06-17T10:33:20.622Z,3.53
2018-06-17T10:35:48.666Z,3.50
2018-06-17T10:38:16.489Z,4.10
2018-06-17T10:40:44.553Z,4.60
2018-06-17T10:43:14.702Z,3.83
2018-06-17T10:45:42.515Z,3.90
2018-06-17T10:48:10.689Z,3.80
2018-06-17T10:50:38.418Z,3.10
2018-06-17T10:53:06.887Z,3.40
2018-06-17T10:55:34.957Z,3.83
2018-06-17T10:58:02.671Z,3.10
2018-06-17T11:00:30.318Z,2.60
2018-06-17T11:02:58.522Z,3.03
2018-06-17T11:05:26.384Z,3.03
2018-06-17T11:07:54.222Z,3.10
2018-06-17T11:10:22.102Z,4.07
2018-06-17T11:12:49.825Z,3.50
2018-06-17T11:15:17.517Z,3.50
2018-06-17T11:17:45.291Z,2.73
2018-06-17T11:20:13.246Z,2.93
2018-06-17T11:22:41.327Z,3.00
2018-06-17T11:25:09.260Z,3.17
2018-06-17T11:27:37.873Z,2.93
2018-06-17T11:30:06.862Z,3.20
2018-06-17T11:32:35.067Z,3.20
2018-06-17T11:35:03.031Z,3.40
2018-06-17T11:37:30.909Z,2.90
2018-06-17T11:39:58.802Z,2.87
2018-06-17T11:42:26.613Z,3.17
2018-06-17T11:44:54.254Z,2.63
2018-06-17T11:47:22.071Z,3.07
2018-06-17T11:49:49.865Z,2.93
2018-06-17T11:52:17.577Z,3.00
2018-06-17T11:54:45.655Z,3.10
2018-06-17T11:57:13.574Z,2.80
2018-06-17T11:59:41.547Z,3.93
2018-06-17T12:02:09.651Z,3.07
2018-06-17T12:04:37.802Z,4.37
2018-06-17T12:07:05.760Z,4.20
2018-06-17T12:09:33.615Z,6.60
2018-06-17T12:12:01.416Z,3.40
2018-06-17T12:14:29.964Z,2.97
2018-06-17T12:16:57.734Z,3.13
2018-06-17T12:19:25.684Z,2.80
2018-06-17T12:21:53.715Z,2.40
2018-06-17T12:24:21.451Z,2.53
2018-06-17T12:26:49.456Z,3.33
2018-06-17T12:29:17.545Z,2.70
2018-06-17T12:31:45.622Z,2.67
2018-06-17T12:34:14.475Z,2.50
2018-06-17T12:36:42.415Z,2.30
2018-06-17T12:39:12.891Z,2.30
2018-06-17T12:41:40.958Z,2.67
2018-06-17T12:44:08.637Z,2.47
2018-06-17T12:46:36.560Z,2.07
2018-06-17T12:49:04.395Z,1.80
2018-06-17T12:51:32.244Z,1.67
2018-06-17T12:54:00.257Z,2.10
2018-06-17T12:56:27.905Z,1.90
2018-06-17T12:58:55.999Z,2.20
2018-06-17T13:01:24.073Z,1.90
2018-06-17T13:03:52.832Z,1.73
2018-06-17T13:06:21.026Z,2.40
2018-06-17T13:08:48.724Z,2.00
2018-06-17T13:11:16.410Z,2.10
2018-06-17T13:13:44.050Z,1.60
2018-06-17T13:16:12.301Z,1.53
2018-06-17T13:18:39.876Z,1.63
2018-06-17T13:21:07.407Z,1.43
2018-06-17T13:23:35.091Z,2.03
2018-06-17T13:26:02.846Z,1.30
2018-06-17T13:28:30.790Z,1.60
2018-06-17T13:30:58.723Z,1.33
2018-06-17T13:33:26.645Z,1.20
2018-06-17T13:35:54.868Z,1.23
2018-06-17T13:38:22.910Z,1.10
2018-06-17T13:40:50.517Z,1.30
2018-06-17T13:43:18.368Z,1.40
2018-06-17T13:45:46.169Z,1.03
2018-06-17T13:48:14.076Z,1.10
2018-06-17T13:50:41.999Z,1.03
2018-06-17T13:53:10.018Z,0.83
2018-06-17T13:55:37.982Z,1.00
2018-06-17T13:58:06.124Z,1.23
2018-06-17T14:00:34.342Z,1.10
2018-06-17T14:03:02.256Z,0.87
2018-06-17T14:05:30.371Z,1.07
2018-06-17T14:07:58.340Z,1.03
2018-06-17T14:10:26.243Z,1.00
2018-06-17T14:12:54.469Z,0.63
2018-06-17T14:15:22.415Z,0.90
2018-06-17T14:17:50.122Z,0.90
2018-06-17T14:20:17.929Z,0.90
2018-06-17T14:22:45.810Z,1.00
2018-06-17T14:25:13.488Z,0.90
2018-06-17T14:27:41.290Z,1.13
2018-06-17T14:30:09.210Z,0.80
2018-06-17T14:32:37.301Z,1.00
2018-06-17T14:35:05.210Z,0.90
2018-06-17T14:37:33.125Z,1.03
2018-06-17T14:40:00.987Z,0.87
2018-06-17T14:42:34.500Z,0.90
2018-06-17T14:45:07.825Z,0.87
2018-06-17T14:47:41.171Z,0.90
2018-06-17T14:50:14.693Z,0.87
2018-06-17T14:52:47.830Z,0.90
2018-06-17T14:55:15.585Z,0.90
2018-06-17T14:57:43.383Z,0.80
2018-06-17T15:00:11.138Z,1.00
2018-06-17T15:02:38.851Z,0.83
2018-06-17T15:05:06.716Z,0.97
2018-06-17T15:07:34.706Z,0.90
2018-06-17T15:10:02.742Z,0.83
2018-06-17T15:12:30.557Z,0.70
2018-06-17T15:14:59.790Z,0.97
2018-06-17T15:17:27.762Z,0.80
2018-06-17T15:19:55.594Z,0.93
2018-06-17T15:22:23.384Z,0.83
2018-06-17T15:24:51.132Z,0.93
2018-06-17T15:27:19.107Z,1.10
2018-06-17T15:29:47.260Z,0.80
2018-06-17T15:32:21.105Z,1.07
2018-06-17T15:34:54.504Z,1.13
2018-06-17T15:37:27.568Z,0.90
2018-06-17T15:39:57.204Z,0.67
2018-06-17T15:42:25.029Z,0.77
2018-06-17T15:44:52.923Z,0.50
2018-06-17T15:47:20.611Z,1.00
2018-06-17T15:49:48.381Z,1.10
2018-06-17T15:52:16.087Z,0.60
2018-06-17T15:54:43.784Z,0.70
2018-06-17T15:57:11.406Z,0.70
2018-06-17T15:59:40.014Z,0.70
2018-06-17T16:02:08.039Z,0.90
2018-06-17T16:04:35.557Z,0.63
2018-06-17T16:07:03.777Z,1.00
2018-06-17T16:09:31.668Z,1.10
2018-06-17T16:12:05.059Z,0.80
2018-06-17T16:14:38.581Z,1.00
2018-06-17T16:17:11.719Z,0.73
2018-06-17T16:19:45.355Z,1.00
2018-06-17T16:22:13.175Z,1.10
2018-06-17T16:24:41.221Z,0.90
2018-06-17T16:27:09.042Z,0.87
2018-06-17T16:29:37.192Z,0.97
2018-06-17T16:32:05.180Z,0.70
2018-06-17T16:34:33.216Z,1.10
2018-06-17T16:37:00.905Z,1.00
2018-06-17T16:39:28.856Z,1.63
2018-06-17T16:41:56.894Z,1.00
2018-06-17T16:44:24.760Z,0.97
2018-06-17T16:46:53.499Z,1.13
2018-06-17T16:49:21.308Z,0.90
2018-06-17T16:51:54.607Z,1.10
2018-06-17T16:54:28.089Z,1.23
2018-06-17T16:57:01.449Z,1.20
2018-06-17T16:59:34.802Z,0.83
2018-06-17T17:02:02.552Z,0.73
2018-06-17T17:04:30.283Z,1.23
2018-06-17T17:06:58.756Z,1.10
2018-06-17T17:09:26.591Z,1.10
2018-06-17T17:11:54.196Z,0.80
2018-06-17T17:14:22.093Z,1.13
2018-06-17T17:16:50.835Z,1.00
2018-06-17T17:19:18.760Z,1.10
2018-06-17T17:21:46.503Z,1.00
2018-06-17T17:24:14.472Z,1.30
2018-06-17T17:26:42.733Z,1.00
2018-06-17T17:29:10.534Z,1.20
2018-06-17T17:31:43.958Z,1.00
2018-06-17T17:34:17.222Z,1.30
2018-06-17T17:36:50.660Z,1.20
2018-06-17T17:39:25.003Z,1.20
2018-06-17T17:41:52.935Z,1.10
2018-06-17T17:44:20.891Z,0.90
2018-06-17T17:46:54.340Z,0.97
2018-06-17T17:49:21.980Z,1.10
2018-06-17T17:51:50.648Z,1.10
2018-06-17T17:54:18.655Z,1.20
2018-06-17T17:56:46.259Z,1.30
2018-06-17T17:59:14.149Z,1.10
2018-06-17T18:01:42.079Z,1.40
2018-06-17T18:04:09.819Z,1.30
2018-06-17T18:06:37.829Z,1.13
2018-06-17T18:09:07.891Z,1.50
2018-06-17T18:11:37.312Z,1.50
2018-06-17T18:14:05.279Z,1.30
2018-06-17T18:16:33.289Z,1.00
2018-06-17T18:19:00.944Z,1.43
2018-06-17T18:21:28.785Z,1.00
2018-06-17T18:23:57.713Z,1.23
2018-06-17T18:26:31.420Z,0.90
2018-06-17T18:29:04.711Z,1.30
2018-06-17T18:31:38.062Z,1.57
2018-06-17T18:34:11.882Z,1.10
2018-06-17T18:36:39.838Z,1.07
2018-06-17T18:39:08.745Z,1.17
2018-06-17T18:41:36.724Z,1.30
2018-06-17T18:44:05.583Z,1.00
2018-06-17T18:46:33.676Z,1.60
2018-06-17T18:49:02.589Z,1.07
2018-06-17T18:51:30.677Z,1.40
2018-06-17T18:53:59.038Z,1.00
2018-06-17T18:56:27.080Z,1.40
2018-06-17T18:58:55.320Z,1.20
2018-06-17T19:01:23.240Z,1.47
2018-06-17T19:03:51.592Z,1.10
2018-06-17T19:06:19.912Z,1.40
2018-06-17T19:08:53.619Z,1.57
2018-06-17T19:11:27.315Z,1.50
2018-06-17T19:15:00.760Z,1.30
2018-06-17T19:17:35.574Z,1.27
2018-06-17T19:20:03.675Z,1.50
2018-06-17T19:22:31.671Z,1.10
2018-06-17T19:24:59.557Z,1.40
2018-06-17T19:27:27.377Z,1.13
2018-06-17T19:29:55.548Z,1.53
2018-06-17T19:32:23.294Z,1.37
2018-06-17T19:34:52.162Z,1.23
2018-06-17T19:37:20.564Z,1.40
2018-06-17T19:39:48.901Z,1.90
2018-06-17T19:42:17.084Z,1.47
2018-06-17T19:44:44.857Z,1.33
2018-06-17T19:47:13.105Z,2.27
2018-06-17T19:49:46.694Z,1.70
2018-06-17T19:52:20.455Z,1.20
2018-06-17T19:54:53.678Z,1.40
2018-06-17T19:57:27.139Z,1.43
2018-06-17T20:00:00.668Z,1.50
2018-06-17T20:02:28.721Z,1.50
2018-06-17T20:04:57.317Z,1.10
2018-06-17T20:07:25.208Z,1.60
2018-06-17T20:09:53.091Z,1.10
2018-06-17T20:12:20.937Z,1.83
2018-06-17T20:14:49.125Z,1.70
2018-06-17T20:17:17.331Z,1.63
2018-06-17T20:19:45.477Z,1.67
2018-06-17T20:22:13.368Z,1.30
2018-06-17T20:24:41.257Z,1.40
2018-06-17T20:27:09.166Z,1.17
2018-06-17T20:29:37.174Z,1.40
2018-06-17T20:32:10.714Z,1.70
2018-06-17T20:34:44.745Z,1.60
2018-06-17T20:37:18.286Z,1.70
2018-06-17T20:39:51.712Z,1.20
2018-06-17T20:42:25.037Z,1.20
2018-06-17T20:44:52.810Z,1.30
2018-06-17T20:47:20.524Z,1.63
2018-06-17T20:49:48.408Z,1.60
2018-06-17T20:52:16.228Z,1.37
2018-06-17T20:54:43.854Z,1.50
2018-06-17T20:57:11.438Z,1.80
2018-06-17T20:59:39.286Z,1.50
2018-06-17T21:02:07.120Z,1.50
2018-06-17T21:04:35.107Z,1.60
2018-06-17T21:07:02.883Z,1.63
2018-06-17T21:09:30.714Z,1.40
2018-06-17T21:11:58.482Z,1.40
2018-06-17T21:14:26.365Z,1.60
2018-06-17T21:16:54.208Z,1.53
2018-06-17T21:19:27.590Z,1.50
2018-06-17T21:22:01.490Z,1.37
2018-06-17T21:24:34.736Z,1.90
2018-06-17T21:27:08.175Z,1.57
2018-06-17T21:29:36.160Z,1.60
2018-06-17T21:32:04.115Z,1.60
2018-06-17T21:34:31.897Z,2.10
2018-06-17T21:36:59.741Z,1.70
2018-06-17T21:39:27.625Z,2.20
2018-06-17T21:41:55.536Z,1.60
2018-06-17T21:44:23.616Z,1.73
2018-06-17T21:46:51.698Z,1.63
2018-06-17T21:49:19.692Z,1.63
2018-06-17T21:51:47.435Z,1.63
2018-06-17T21:54:15.108Z,1.80
2018-06-17T21:56:42.772Z,1.83
2018-06-17T21:59:10.631Z,2.00
2018-06-17T22:01:38.240Z,1.97
2018-06-17T22:04:11.680Z,1.93
2018-06-17T22:06:39.433Z,1.60
2018-06-17T22:10:15.471Z,2.10
2018-06-17T22:12:48.821Z,1.90
2018-06-17T22:15:22.161Z,1.90
2018-06-17T22:17:51.394Z,2.13
2018-06-17T22:20:19.422Z,1.70
2018-06-17T22:22:47.379Z,1.80
2018-06-17T22:25:15.262Z,1.63
2018-06-17T22:27:43.008Z,1.60
2018-06-17T22:30:10.890Z,2.10
2018-06-17T22:32:38.605Z,2.00
2018-06-17T22:35:06.274Z,1.77
2018-06-17T22:37:34.058Z,2.10
2018-06-17T22:40:01.868Z,1.87
2018-06-17T22:42:30.058Z,2.40
2018-06-17T22:44:57.640Z,2.27
2018-06-17T22:47:31.032Z,2.37
2018-06-17T22:49:59.075Z,1.90
2018-06-17T22:52:26.749Z,2.13
2018-06-17T22:54:54.634Z,2.00
2018-06-17T22:57:28.198Z,1.60
2018-06-17T23:00:01.478Z,1.93
2018-06-17T23:02:34.962Z,2.00
2018-06-17T23:05:08.308Z,1.93
2018-06-17T23:07:41.781Z,2.13
2018-06-17T23:10:10.115Z,2.10
2018-06-17T23:12:38.156Z,2.20
2018-06-17T23:15:06.650Z,2.70
2018-06-17T23:17:34.753Z,2.50
2018-06-17T23:20:02.522Z,1.90
2018-06-17T23:22:30.416Z,2.30
2018-06-17T23:24:58.066Z,2.30
2018-06-17T23:27:26.155Z,2.37
2018-06-17T23:29:53.785Z,2.00
2018-06-17T23:32:21.742Z,2.27
2018-06-17T23:34:49.843Z,2.33
2018-06-17T23:37:18.510Z,1.93
2018-06-17T23:39:46.493Z,1.80
2018-06-17T23:42:14.236Z,2.17
2018-06-17T23:44:41.899Z,2.20
2018-06-17T23:47:15.403Z,2.20
2018-06-17T23:49:48.762Z,2.10
2018-06-17T23:52:22.457Z,2.37
2018-06-17T23:54:55.890Z,2.50
2018-06-17T23:57:23.750Z,2.30
2018-06-17T23:59:51.769Z,2.27
